sensor_id;sensor_type;location;lat;lon;timestamp;temperature;humidity
53310;DHT22;39197;53.200;5.792;2023-11-21T00:01:06;10.00;99.90
53310;DHT22;39197;53.200;5.792;2023-11-21T00:03:34;10.20;99.90
53310;DHT22;39197;53.200;5.792;2023-11-21T00:06:00;10.20;99.90
53310;DHT22;39197;53.200;5.792;2023-11-21T00:08:26;10.10;99.90
53310;DHT22;39197;53.200;5.792;2023-11-21T00:10:52;10.10;99.90
53310;DHT22;39197;53.200;5.792;2023-11-21T00:13:18;10.20;99.90
53310;DHT22;39197;53.200;5.792;2023-11-21T00:15:44;10.20;99.90
53310;DHT22;39197;53.200;5.792;2023-11-21T00:18:09;10.10;99.90
53310;DHT22;39197;53.200;5.792;2023-11-21T00:20:35;10.20;99.90
53310;DHT22;39197;53.200;5.792;2023-11-21T00:23:01;10.10;99.90
53310;DHT22;39197;53.200;5.792;2023-11-21T00:25:27;10.30;99.90
53310;DHT22;39197;53.200;5.792;2023-11-21T00:27:53;10.10;99.90
53310;DHT22;39197;53.200;5.792;2023-11-21T00:30:19;10.10;99.90
53310;DHT22;39197;53.200;5.792;2023-11-21T00:32:46;10.30;99.90
53310;DHT22;39197;53.200;5.792;2023-11-21T00:35:12;10.00;99.90
53310;DHT22;39197;53.200;5.792;2023-11-21T00:37:37;10.10;99.90
53310;DHT22;39197;53.200;5.792;2023-11-21T00:40:05;10.10;99.90
53310;DHT22;39197;53.200;5.792;2023-11-21T00:42:31;10.10;99.90
53310;DHT22;39197;53.200;5.792;2023-11-21T00:44:59;10.10;99.90
53310;DHT22;39197;53.200;5.792;2023-11-21T00:47:25;10.20;99.90
53310;DHT22;39197;53.200;5.792;2023-11-21T00:49:50;10.10;99.90
53310;DHT22;39197;53.200;5.792;2023-11-21T00:52:16;10.10;99.90
53310;DHT22;39197;53.200;5.792;2023-11-21T00:54:42;10.20;99.90
53310;DHT22;39197;53.200;5.792;2023-11-21T00:57:08;10.00;99.90
53310;DHT22;39197;53.200;5.792;2023-11-21T00:59:34;10.10;99.90
53310;DHT22;39197;53.200;5.792;2023-11-21T01:02:00;10.30;99.90
53310;DHT22;39197;53.200;5.792;2023-11-21T01:04:27;10.10;99.90
53310;DHT22;39197;53.200;5.792;2023-11-21T01:06:53;10.20;99.90
53310;DHT22;39197;53.200;5.792;2023-11-21T01:09:18;10.20;99.90
53310;DHT22;39197;53.200;5.792;2023-11-21T01:11:44;10.10;99.90
53310;DHT22;39197;53.200;5.792;2023-11-21T01:14:10;10.00;99.90
53310;DHT22;39197;53.200;5.792;2023-11-21T01:16:36;10.10;99.90
53310;DHT22;39197;53.200;5.792;2023-11-21T01:19:01;10.00;99.90
53310;DHT22;39197;53.200;5.792;2023-11-21T01:21:27;10.20;99.90
53310;DHT22;39197;53.200;5.792;2023-11-21T01:23:53;10.10;99.90
53310;DHT22;39197;53.200;5.792;2023-11-21T01:26:20;10.20;99.90
53310;DHT22;39197;53.200;5.792;2023-11-21T01:28:46;10.20;99.90
53310;DHT22;39197;53.200;5.792;2023-11-21T01:31:14;10.20;99.90
53310;DHT22;39197;53.200;5.792;2023-11-21T01:33:40;10.10;99.90
53310;DHT22;39197;53.200;5.792;2023-11-21T01:36:06;10.20;99.90
53310;DHT22;39197;53.200;5.792;2023-11-21T01:38:32;10.20;99.90
53310;DHT22;39197;53.200;5.792;2023-11-21T01:40:57;10.20;99.90
53310;DHT22;39197;53.200;5.792;2023-11-21T01:43:26;10.20;99.90
53310;DHT22;39197;53.200;5.792;2023-11-21T01:45:53;10.20;99.90
53310;DHT22;39197;53.200;5.792;2023-11-21T01:48:23;10.30;99.90
53310;DHT22;39197;53.200;5.792;2023-11-21T01:50:49;10.40;99.90
53310;DHT22;39197;53.200;5.792;2023-11-21T01:53:15;10.30;99.90
53310;DHT22;39197;53.200;5.792;2023-11-21T01:55:42;10.30;99.90
53310;DHT22;39197;53.200;5.792;2023-11-21T01:58:09;10.40;99.90
53310;DHT22;39197;53.200;5.792;2023-11-21T02:00:35;10.40;99.90
53310;DHT22;39197;53.200;5.792;2023-11-21T02:03:02;10.50;99.90
53310;DHT22;39197;53.200;5.792;2023-11-21T02:05:28;10.30;99.90
53310;DHT22;39197;53.200;5.792;2023-11-21T02:07:54;10.30;99.90
53310;DHT22;39197;53.200;5.792;2023-11-21T02:10:22;10.40;99.90
53310;DHT22;39197;53.200;5.792;2023-11-21T02:12:50;10.40;99.90
53310;DHT22;39197;53.200;5.792;2023-11-21T02:15:17;10.50;99.90
53310;DHT22;39197;53.200;5.792;2023-11-21T02:17:46;10.40;99.90
53310;DHT22;39197;53.200;5.792;2023-11-21T02:20:13;10.50;99.90
53310;DHT22;39197;53.200;5.792;2023-11-21T02:23:04;10.50;99.90
53310;DHT22;39197;53.200;5.792;2023-11-21T02:25:31;10.50;99.90
53310;DHT22;39197;53.200;5.792;2023-11-21T02:28:01;10.50;99.90
53310;DHT22;39197;53.200;5.792;2023-11-21T02:30:28;10.40;99.90
53310;DHT22;39197;53.200;5.792;2023-11-21T02:32:54;10.60;99.90
53310;DHT22;39197;53.200;5.792;2023-11-21T02:35:23;10.60;99.90
53310;DHT22;39197;53.200;5.792;2023-11-21T02:37:50;10.50;99.90
53310;DHT22;39197;53.200;5.792;2023-11-21T02:40:16;10.60;99.90
53310;DHT22;39197;53.200;5.792;2023-11-21T02:42:46;10.50;99.90
53310;DHT22;39197;53.200;5.792;2023-11-21T02:45:14;10.50;99.90
53310;DHT22;39197;53.200;5.792;2023-11-21T02:47:42;10.50;99.90
53310;DHT22;39197;53.200;5.792;2023-11-21T02:50:08;10.50;99.90
53310;DHT22;39197;53.200;5.792;2023-11-21T02:52:37;10.50;99.90
53310;DHT22;39197;53.200;5.792;2023-11-21T02:55:04;10.60;99.90
53310;DHT22;39197;53.200;5.792;2023-11-21T02:57:30;10.50;99.90
53310;DHT22;39197;53.200;5.792;2023-11-21T02:59:55;10.40;99.90
53310;DHT22;39197;53.200;5.792;2023-11-21T03:02:21;10.50;99.90
53310;DHT22;39197;53.200;5.792;2023-11-21T03:04:47;10.50;99.90
53310;DHT22;39197;53.200;5.792;2023-11-21T03:07:15;10.40;99.90
53310;DHT22;39197;53.200;5.792;2023-11-21T03:09:40;10.40;99.90
53310;DHT22;39197;53.200;5.792;2023-11-21T03:12:06;10.40;99.90
53310;DHT22;39197;53.200;5.792;2023-11-21T03:14:31;10.30;99.90
53310;DHT22;39197;53.200;5.792;2023-11-21T03:16:57;10.40;99.90
53310;DHT22;39197;53.200;5.792;2023-11-21T03:19:23;10.40;99.90
53310;DHT22;39197;53.200;5.792;2023-11-21T03:21:49;10.50;99.90
53310;DHT22;39197;53.200;5.792;2023-11-21T03:24:14;10.50;99.90
53310;DHT22;39197;53.200;5.792;2023-11-21T03:26:44;10.40;99.90
53310;DHT22;39197;53.200;5.792;2023-11-21T03:29:10;10.40;99.90
53310;DHT22;39197;53.200;5.792;2023-11-21T03:31:35;10.40;99.90
53310;DHT22;39197;53.200;5.792;2023-11-21T03:34:01;10.50;99.90
53310;DHT22;39197;53.200;5.792;2023-11-21T03:36:27;10.40;99.90
53310;DHT22;39197;53.200;5.792;2023-11-21T03:38:52;10.40;99.90
53310;DHT22;39197;53.200;5.792;2023-11-21T03:41:19;10.40;99.90
53310;DHT22;39197;53.200;5.792;2023-11-21T03:43:44;10.20;99.90
53310;DHT22;39197;53.200;5.792;2023-11-21T03:46:10;10.30;99.90
53310;DHT22;39197;53.200;5.792;2023-11-21T03:48:35;10.20;99.90
53310;DHT22;39197;53.200;5.792;2023-11-21T03:51:01;10.30;99.90
53310;DHT22;39197;53.200;5.792;2023-11-21T03:53:26;10.30;99.90
53310;DHT22;39197;53.200;5.792;2023-11-21T03:55:52;10.40;99.90
53310;DHT22;39197;53.200;5.792;2023-11-21T03:58:18;10.20;99.90
53310;DHT22;39197;53.200;5.792;2023-11-21T04:00:43;10.20;99.90
53310;DHT22;39197;53.200;5.792;2023-11-21T04:03:09;10.20;99.90
53310;DHT22;39197;53.200;5.792;2023-11-21T04:05:34;10.10;99.90
53310;DHT22;39197;53.200;5.792;2023-11-21T04:08:00;10.30;99.90
53310;DHT22;39197;53.200;5.792;2023-11-21T04:10:26;10.30;99.90
53310;DHT22;39197;53.200;5.792;2023-11-21T04:12:52;10.10;99.90
53310;DHT22;39197;53.200;5.792;2023-11-21T04:15:17;10.20;99.90
53310;DHT22;39197;53.200;5.792;2023-11-21T04:17:43;10.10;99.90
53310;DHT22;39197;53.200;5.792;2023-11-21T04:20:09;10.20;99.90
53310;DHT22;39197;53.200;5.792;2023-11-21T04:22:42;10.20;99.90
53310;DHT22;39197;53.200;5.792;2023-11-21T04:25:13;10.20;99.90
53310;DHT22;39197;53.200;5.792;2023-11-21T04:27:40;10.10;99.90
53310;DHT22;39197;53.200;5.792;2023-11-21T04:30:06;10.00;99.90
53310;DHT22;39197;53.200;5.792;2023-11-21T04:32:33;10.00;99.90
53310;DHT22;39197;53.200;5.792;2023-11-21T04:34:58;10.00;99.90
53310;DHT22;39197;53.200;5.792;2023-11-21T04:37:24;10.10;99.90
53310;DHT22;39197;53.200;5.792;2023-11-21T04:39:50;10.10;99.90
53310;DHT22;39197;53.200;5.792;2023-11-21T04:42:15;10.10;99.90
53310;DHT22;39197;53.200;5.792;2023-11-21T04:44:41;10.10;99.90
53310;DHT22;39197;53.200;5.792;2023-11-21T04:47:07;10.10;99.90
53310;DHT22;39197;53.200;5.792;2023-11-21T04:49:33;10.10;99.90
53310;DHT22;39197;53.200;5.792;2023-11-21T04:51:59;10.10;99.90
53310;DHT22;39197;53.200;5.792;2023-11-21T04:54:24;9.90;99.90
53310;DHT22;39197;53.200;5.792;2023-11-21T04:56:50;10.00;99.90
53310;DHT22;39197;53.200;5.792;2023-11-21T04:59:16;10.00;99.90
53310;DHT22;39197;53.200;5.792;2023-11-21T05:01:41;10.10;99.90
53310;DHT22;39197;53.200;5.792;2023-11-21T05:04:07;10.00;99.90
53310;DHT22;39197;53.200;5.792;2023-11-21T05:06:34;9.90;99.90
53310;DHT22;39197;53.200;5.792;2023-11-21T05:08:59;10.00;99.90
53310;DHT22;39197;53.200;5.792;2023-11-21T05:11:26;10.50;99.90
53310;DHT22;39197;53.200;5.792;2023-11-21T05:13:52;10.00;99.90
53310;DHT22;39197;53.200;5.792;2023-11-21T05:16:19;9.80;99.90
53310;DHT22;39197;53.200;5.792;2023-11-21T05:18:45;9.80;99.90
53310;DHT22;39197;53.200;5.792;2023-11-21T05:21:10;9.80;99.90
53310;DHT22;39197;53.200;5.792;2023-11-21T05:23:36;9.80;99.90
53310;DHT22;39197;53.200;5.792;2023-11-21T05:26:03;9.60;99.90
53310;DHT22;39197;53.200;5.792;2023-11-21T05:28:28;9.70;99.90
53310;DHT22;39197;53.200;5.792;2023-11-21T05:30:54;9.50;99.90
53310;DHT22;39197;53.200;5.792;2023-11-21T05:33:20;9.60;99.90
53310;DHT22;39197;53.200;5.792;2023-11-21T05:35:46;9.60;99.90
53310;DHT22;39197;53.200;5.792;2023-11-21T05:38:14;9.40;99.90
53310;DHT22;39197;53.200;5.792;2023-11-21T05:40:39;9.40;99.90
53310;DHT22;39197;53.200;5.792;2023-11-21T05:43:06;9.30;99.90
53310;DHT22;39197;53.200;5.792;2023-11-21T05:45:32;9.50;99.90
53310;DHT22;39197;53.200;5.792;2023-11-21T05:47:58;9.40;99.90
53310;DHT22;39197;53.200;5.792;2023-11-21T05:50:24;9.40;99.90
53310;DHT22;39197;53.200;5.792;2023-11-21T05:52:49;9.50;99.90
53310;DHT22;39197;53.200;5.792;2023-11-21T05:55:15;9.30;99.90
53310;DHT22;39197;53.200;5.792;2023-11-21T05:57:43;9.40;99.90
53310;DHT22;39197;53.200;5.792;2023-11-21T06:00:11;9.30;99.90
53310;DHT22;39197;53.200;5.792;2023-11-21T06:02:53;9.30;99.90
53310;DHT22;39197;53.200;5.792;2023-11-21T06:05:23;9.40;99.90
53310;DHT22;39197;53.200;5.792;2023-11-21T06:07:53;9.40;99.90
53310;DHT22;39197;53.200;5.792;2023-11-21T06:10:22;9.40;99.90
53310;DHT22;39197;53.200;5.792;2023-11-21T06:12:49;9.40;99.90
53310;DHT22;39197;53.200;5.792;2023-11-21T06:15:14;9.40;99.90
53310;DHT22;39197;53.200;5.792;2023-11-21T06:17:41;9.50;99.90
53310;DHT22;39197;53.200;5.792;2023-11-21T06:20:09;9.30;99.90
53310;DHT22;39197;53.200;5.792;2023-11-21T06:22:38;9.40;99.90
53310;DHT22;39197;53.200;5.792;2023-11-21T06:25:05;9.40;99.90
53310;DHT22;39197;53.200;5.792;2023-11-21T06:27:37;9.30;99.90
53310;DHT22;39197;53.200;5.792;2023-11-21T06:30:03;9.30;99.90
53310;DHT22;39197;53.200;5.792;2023-11-21T06:32:29;9.30;99.90
53310;DHT22;39197;53.200;5.792;2023-11-21T06:34:58;9.30;99.90
53310;DHT22;39197;53.200;5.792;2023-11-21T06:37:29;9.30;99.90
53310;DHT22;39197;53.200;5.792;2023-11-21T06:39:54;9.20;99.90
53310;DHT22;39197;53.200;5.792;2023-11-21T06:42:22;9.30;99.90
53310;DHT22;39197;53.200;5.792;2023-11-21T06:44:48;9.20;99.90
53310;DHT22;39197;53.200;5.792;2023-11-21T06:47:14;9.20;99.90
53310;DHT22;39197;53.200;5.792;2023-11-21T06:49:42;9.20;99.90
53310;DHT22;39197;53.200;5.792;2023-11-21T06:52:08;9.20;99.90
53310;DHT22;39197;53.200;5.792;2023-11-21T06:54:33;9.30;99.90
53310;DHT22;39197;53.200;5.792;2023-11-21T06:57:00;9.20;99.90
53310;DHT22;39197;53.200;5.792;2023-11-21T06:59:25;9.30;99.90
53310;DHT22;39197;53.200;5.792;2023-11-21T07:01:51;9.30;99.90
53310;DHT22;39197;53.200;5.792;2023-11-21T07:04:17;9.20;99.90
53310;DHT22;39197;53.200;5.792;2023-11-21T07:06:44;9.20;99.90
53310;DHT22;39197;53.200;5.792;2023-11-21T07:09:09;9.30;99.90
53310;DHT22;39197;53.200;5.792;2023-11-21T07:11:37;9.20;99.90
53310;DHT22;39197;53.200;5.792;2023-11-21T07:14:03;9.30;99.90
53310;DHT22;39197;53.200;5.792;2023-11-21T07:16:36;9.10;99.90
53310;DHT22;39197;53.200;5.792;2023-11-21T07:19:05;9.20;99.90
53310;DHT22;39197;53.200;5.792;2023-11-21T07:21:36;9.00;99.90
53310;DHT22;39197;53.200;5.792;2023-11-21T07:24:03;9.20;99.90
53310;DHT22;39197;53.200;5.792;2023-11-21T07:26:29;9.00;99.90
53310;DHT22;39197;53.200;5.792;2023-11-21T07:28:54;9.10;99.90
53310;DHT22;39197;53.200;5.792;2023-11-21T07:31:22;9.10;99.90
53310;DHT22;39197;53.200;5.792;2023-11-21T07:33:47;9.10;99.90
53310;DHT22;39197;53.200;5.792;2023-11-21T07:36:14;9.10;99.90
53310;DHT22;39197;53.200;5.792;2023-11-21T07:38:41;9.00;99.90
53310;DHT22;39197;53.200;5.792;2023-11-21T07:41:07;9.00;99.90
53310;DHT22;39197;53.200;5.792;2023-11-21T07:43:35;9.10;99.90
53310;DHT22;39197;53.200;5.792;2023-11-21T07:46:04;9.10;99.90
53310;DHT22;39197;53.200;5.792;2023-11-21T07:48:30;9.10;99.90
53310;DHT22;39197;53.200;5.792;2023-11-21T07:50:57;9.20;99.90
53310;DHT22;39197;53.200;5.792;2023-11-21T07:53:24;9.10;99.90
53310;DHT22;39197;53.200;5.792;2023-11-21T07:55:51;9.20;99.90
53310;DHT22;39197;53.200;5.792;2023-11-21T07:58:17;9.20;99.90
53310;DHT22;39197;53.200;5.792;2023-11-21T08:00:43;9.00;99.90
53310;DHT22;39197;53.200;5.792;2023-11-21T08:03:09;9.10;99.90
53310;DHT22;39197;53.200;5.792;2023-11-21T08:05:35;9.00;99.90
53310;DHT22;39197;53.200;5.792;2023-11-21T08:08:00;9.20;99.90
53310;DHT22;39197;53.200;5.792;2023-11-21T08:10:26;9.10;99.90
53310;DHT22;39197;53.200;5.792;2023-11-21T08:12:52;9.00;99.90
53310;DHT22;39197;53.200;5.792;2023-11-21T08:15:19;9.10;99.90
53310;DHT22;39197;53.200;5.792;2023-11-21T08:17:46;9.00;99.90
53310;DHT22;39197;53.200;5.792;2023-11-21T08:20:12;9.10;99.90
53310;DHT22;39197;53.200;5.792;2023-11-21T08:22:37;9.00;99.90
53310;DHT22;39197;53.200;5.792;2023-11-21T08:25:06;9.20;99.90
53310;DHT22;39197;53.200;5.792;2023-11-21T08:27:33;9.20;99.90
53310;DHT22;39197;53.200;5.792;2023-11-21T08:30:00;9.10;99.90
53310;DHT22;39197;53.200;5.792;2023-11-21T08:32:26;9.10;99.90
53310;DHT22;39197;53.200;5.792;2023-11-21T08:34:52;9.00;99.90
53310;DHT22;39197;53.200;5.792;2023-11-21T08:37:17;9.20;99.90
53310;DHT22;39197;53.200;5.792;2023-11-21T08:39:47;9.10;99.90
53310;DHT22;39197;53.200;5.792;2023-11-21T08:42:13;9.20;99.90
53310;DHT22;39197;53.200;5.792;2023-11-21T08:44:39;9.20;99.90
53310;DHT22;39197;53.200;5.792;2023-11-21T08:47:05;9.20;99.90
53310;DHT22;39197;53.200;5.792;2023-11-21T08:49:31;9.30;99.90
53310;DHT22;39197;53.200;5.792;2023-11-21T08:51:58;9.30;99.90
53310;DHT22;39197;53.200;5.792;2023-11-21T08:54:25;9.40;99.90
53310;DHT22;39197;53.200;5.792;2023-11-21T08:56:54;9.40;99.90
53310;DHT22;39197;53.200;5.792;2023-11-21T08:59:21;9.40;99.90
53310;DHT22;39197;53.200;5.792;2023-11-21T09:01:47;9.40;99.90
53310;DHT22;39197;53.200;5.792;2023-11-21T09:04:13;9.40;99.90
53310;DHT22;39197;53.200;5.792;2023-11-21T09:06:39;9.40;99.90
53310;DHT22;39197;53.200;5.792;2023-11-21T09:09:05;9.40;99.90
53310;DHT22;39197;53.200;5.792;2023-11-21T09:11:32;9.40;99.90
53310;DHT22;39197;53.200;5.792;2023-11-21T09:14:00;9.30;99.90
53310;DHT22;39197;53.200;5.792;2023-11-21T09:16:26;9.40;99.90
53310;DHT22;39197;53.200;5.792;2023-11-21T09:18:51;9.40;99.90
53310;DHT22;39197;53.200;5.792;2023-11-21T09:21:17;9.50;99.90
53310;DHT22;39197;53.200;5.792;2023-11-21T09:23:45;9.50;99.90
53310;DHT22;39197;53.200;5.792;2023-11-21T09:26:11;9.50;99.90
53310;DHT22;39197;53.200;5.792;2023-11-21T09:28:38;9.60;99.90
53310;DHT22;39197;53.200;5.792;2023-11-21T09:31:05;9.60;99.90
53310;DHT22;39197;53.200;5.792;2023-11-21T09:33:30;9.70;99.90
53310;DHT22;39197;53.200;5.792;2023-11-21T09:35:57;9.70;99.90
53310;DHT22;39197;53.200;5.792;2023-11-21T09:38:23;9.70;99.90
53310;DHT22;39197;53.200;5.792;2023-11-21T09:40:49;10.20;99.90
53310;DHT22;39197;53.200;5.792;2023-11-21T09:43:19;10.40;99.90
53310;DHT22;39197;53.200;5.792;2023-11-21T09:45:54;10.80;99.90
53310;DHT22;39197;53.200;5.792;2023-11-21T09:48:23;11.50;99.90
53310;DHT22;39197;53.200;5.792;2023-11-21T09:50:50;12.10;99.90
53310;DHT22;39197;53.200;5.792;2023-11-21T09:53:20;12.60;99.90
53310;DHT22;39197;53.200;5.792;2023-11-21T09:55:48;13.40;99.90
53310;DHT22;39197;53.200;5.792;2023-11-21T09:58:15;13.10;99.90
53310;DHT22;39197;53.200;5.792;2023-11-21T10:00:45;13.30;99.90
53310;DHT22;39197;53.200;5.792;2023-11-21T10:03:11;13.00;99.90
53310;DHT22;39197;53.200;5.792;2023-11-21T10:05:38;12.30;99.90
53310;DHT22;39197;53.200;5.792;2023-11-21T10:08:07;12.10;99.90
53310;DHT22;39197;53.200;5.792;2023-11-21T10:10:35;11.70;99.90
53310;DHT22;39197;53.200;5.792;2023-11-21T10:13:03;11.50;99.90
53310;DHT22;39197;53.200;5.792;2023-11-21T10:15:33;11.20;99.90
53310;DHT22;39197;53.200;5.792;2023-11-21T10:18:05;11.20;99.90
53310;DHT22;39197;53.200;5.792;2023-11-21T10:20:32;11.10;99.90
53310;DHT22;39197;53.200;5.792;2023-11-21T10:23:03;11.00;99.90
53310;DHT22;39197;53.200;5.792;2023-11-21T10:25:30;10.70;99.90
53310;DHT22;39197;53.200;5.792;2023-11-21T10:28:01;10.70;99.90
53310;DHT22;39197;53.200;5.792;2023-11-21T10:30:37;10.60;99.90
53310;DHT22;39197;53.200;5.792;2023-11-21T10:33:04;10.40;99.90
53310;DHT22;39197;53.200;5.792;2023-11-21T10:35:43;10.50;99.90
53310;DHT22;39197;53.200;5.792;2023-11-21T10:38:12;10.40;99.90
53310;DHT22;39197;53.200;5.792;2023-11-21T10:40:42;10.30;99.90
53310;DHT22;39197;53.200;5.792;2023-11-21T10:43:11;10.20;99.90
53310;DHT22;39197;53.200;5.792;2023-11-21T10:45:41;10.20;99.90
53310;DHT22;39197;53.200;5.792;2023-11-21T10:48:14;10.00;99.90
53310;DHT22;39197;53.200;5.792;2023-11-21T10:50:45;10.00;99.90
53310;DHT22;39197;53.200;5.792;2023-11-21T10:53:11;10.10;99.90
53310;DHT22;39197;53.200;5.792;2023-11-21T10:55:38;10.10;99.90
53310;DHT22;39197;53.200;5.792;2023-11-21T10:58:04;10.00;99.90
53310;DHT22;39197;53.200;5.792;2023-11-21T11:00:32;9.90;99.90
53310;DHT22;39197;53.200;5.792;2023-11-21T11:02:59;10.00;99.90
53310;DHT22;39197;53.200;5.792;2023-11-21T11:05:27;10.10;99.90
53310;DHT22;39197;53.200;5.792;2023-11-21T11:08:08;10.60;99.90
53310;DHT22;39197;53.200;5.792;2023-11-21T11:10:35;11.20;99.90
53310;DHT22;39197;53.200;5.792;2023-11-21T11:13:02;12.30;99.90
53310;DHT22;39197;53.200;5.792;2023-11-21T11:15:28;13.30;99.90
53310;DHT22;39197;53.200;5.792;2023-11-21T11:17:54;13.60;99.90
53310;DHT22;39197;53.200;5.792;2023-11-21T11:20:25;14.00;99.90
53310;DHT22;39197;53.200;5.792;2023-11-21T11:31:47;14.80;99.90
53310;DHT22;39197;53.200;5.792;2023-11-21T11:34:29;13.80;99.90
53310;DHT22;39197;53.200;5.792;2023-11-21T11:37:07;14.00;99.90
53310;DHT22;39197;53.200;5.792;2023-11-21T11:39:36;14.00;99.90
53310;DHT22;39197;53.200;5.792;2023-11-21T11:42:05;14.10;99.90
53310;DHT22;39197;53.200;5.792;2023-11-21T11:47:16;14.00;99.90
53310;DHT22;39197;53.200;5.792;2023-11-21T11:50:05;13.60;99.90
53310;DHT22;39197;53.200;5.792;2023-11-21T11:52:46;14.00;99.90
53310;DHT22;39197;53.200;5.792;2023-11-21T11:55:14;14.60;99.90
53310;DHT22;39197;53.200;5.792;2023-11-21T11:57:44;15.10;99.90
53310;DHT22;39197;53.200;5.792;2023-11-21T12:00:32;14.40;99.90
53310;DHT22;39197;53.200;5.792;2023-11-21T12:03:01;15.00;99.90
53310;DHT22;39197;53.200;5.792;2023-11-21T12:05:31;15.10;99.90
53310;DHT22;39197;53.200;5.792;2023-11-21T12:08:05;15.10;99.90
53310;DHT22;39197;53.200;5.792;2023-11-21T12:10:36;15.30;99.90
53310;DHT22;39197;53.200;5.792;2023-11-21T12:13:05;14.80;99.90
53310;DHT22;39197;53.200;5.792;2023-11-21T12:15:33;15.10;99.90
53310;DHT22;39197;53.200;5.792;2023-11-21T12:18:00;14.80;99.90
53310;DHT22;39197;53.200;5.792;2023-11-21T12:20:27;14.70;99.90
53310;DHT22;39197;53.200;5.792;2023-11-21T12:22:57;14.60;99.90
53310;DHT22;39197;53.200;5.792;2023-11-21T12:25:27;14.20;99.90
53310;DHT22;39197;53.200;5.792;2023-11-21T12:27:58;14.00;99.90
53310;DHT22;39197;53.200;5.792;2023-11-21T12:30:30;13.70;99.90
53310;DHT22;39197;53.200;5.792;2023-11-21T12:32:58;13.30;99.90
53310;DHT22;39197;53.200;5.792;2023-11-21T12:35:25;13.10;99.90
53310;DHT22;39197;53.200;5.792;2023-11-21T12:37:53;12.80;99.90
53310;DHT22;39197;53.200;5.792;2023-11-21T12:40:20;12.70;99.90
53310;DHT22;39197;53.200;5.792;2023-11-21T12:42:49;12.30;99.90
53310;DHT22;39197;53.200;5.792;2023-11-21T12:45:20;12.30;99.90
53310;DHT22;39197;53.200;5.792;2023-11-21T12:47:49;12.10;99.90
53310;DHT22;39197;53.200;5.792;2023-11-21T12:50:25;12.00;99.90
53310;DHT22;39197;53.200;5.792;2023-11-21T12:52:58;11.70;99.90
53310;DHT22;39197;53.200;5.792;2023-11-21T12:55:24;11.70;99.90
53310;DHT22;39197;53.200;5.792;2023-11-21T12:57:52;11.70;99.90
53310;DHT22;39197;53.200;5.792;2023-11-21T13:00:20;11.60;99.90
53310;DHT22;39197;53.200;5.792;2023-11-21T13:02:56;11.80;99.90
53310;DHT22;39197;53.200;5.792;2023-11-21T13:05:29;11.70;99.90
53310;DHT22;39197;53.200;5.792;2023-11-21T13:07:57;11.40;99.90
53310;DHT22;39197;53.200;5.792;2023-11-21T13:10:24;11.20;99.90
53310;DHT22;39197;53.200;5.792;2023-11-21T13:12:52;11.30;99.90
53310;DHT22;39197;53.200;5.792;2023-11-21T13:15:18;11.20;99.90
53310;DHT22;39197;53.200;5.792;2023-11-21T13:17:45;11.10;99.90
53310;DHT22;39197;53.200;5.792;2023-11-21T13:20:11;11.10;99.90
53310;DHT22;39197;53.200;5.792;2023-11-21T13:22:54;11.10;99.90
53310;DHT22;39197;53.200;5.792;2023-11-21T13:25:25;11.70;99.90
53310;DHT22;39197;53.200;5.792;2023-11-21T13:27:54;12.00;99.90
53310;DHT22;39197;53.200;5.792;2023-11-21T13:30:20;12.10;99.90
53310;DHT22;39197;53.200;5.792;2023-11-21T13:32:56;11.80;99.90
53310;DHT22;39197;53.200;5.792;2023-11-21T13:35:23;12.10;99.90
53310;DHT22;39197;53.200;5.792;2023-11-21T13:37:57;11.90;99.90
53310;DHT22;39197;53.200;5.792;2023-11-21T16:24:23;10.80;99.90
53310;DHT22;39197;53.200;5.792;2023-11-21T16:26:50;8.30;99.90
53310;DHT22;39197;53.200;5.792;2023-11-21T16:29:15;8.30;99.90
53310;DHT22;39197;53.200;5.792;2023-11-21T16:31:42;8.40;99.90
53310;DHT22;39197;53.200;5.792;2023-11-21T16:34:13;8.30;99.90
53310;DHT22;39197;53.200;5.792;2023-11-21T16:36:39;8.30;99.90
53310;DHT22;39197;53.200;5.792;2023-11-21T16:39:05;8.30;99.90
53310;DHT22;39197;53.200;5.792;2023-11-21T16:41:31;8.30;99.90
53310;DHT22;39197;53.200;5.792;2023-11-21T16:43:56;8.30;99.90
53310;DHT22;39197;53.200;5.792;2023-11-21T16:46:22;8.20;99.90
53310;DHT22;39197;53.200;5.792;2023-11-21T16:48:48;8.30;99.90
53310;DHT22;39197;53.200;5.792;2023-11-21T16:51:17;8.20;99.90
53310;DHT22;39197;53.200;5.792;2023-11-21T16:53:43;8.30;99.90
53310;DHT22;39197;53.200;5.792;2023-11-21T16:56:09;8.30;99.90
53310;DHT22;39197;53.200;5.792;2023-11-21T16:58:36;8.20;99.90
53310;DHT22;39197;53.200;5.792;2023-11-21T17:01:02;8.30;99.90
53310;DHT22;39197;53.200;5.792;2023-11-21T17:03:28;8.30;99.90
53310;DHT22;39197;53.200;5.792;2023-11-21T17:05:55;8.20;99.90
53310;DHT22;39197;53.200;5.792;2023-11-21T17:08:20;8.30;99.90
53310;DHT22;39197;53.200;5.792;2023-11-21T17:10:47;8.10;99.90
53310;DHT22;39197;53.200;5.792;2023-11-21T17:13:14;8.10;99.90
53310;DHT22;39197;53.200;5.792;2023-11-21T17:15:43;8.00;99.90
53310;DHT22;39197;53.200;5.792;2023-11-21T17:18:09;8.00;99.90
53310;DHT22;39197;53.200;5.792;2023-11-21T17:20:34;8.00;99.90
53310;DHT22;39197;53.200;5.792;2023-11-21T17:23:02;8.00;99.90
53310;DHT22;39197;53.200;5.792;2023-11-21T17:25:29;8.00;99.90
53310;DHT22;39197;53.200;5.792;2023-11-21T17:27:56;7.90;99.90
53310;DHT22;39197;53.200;5.792;2023-11-21T17:30:21;7.90;99.90
53310;DHT22;39197;53.200;5.792;2023-11-21T17:32:47;7.80;99.90
53310;DHT22;39197;53.200;5.792;2023-11-21T17:35:13;7.80;99.90
53310;DHT22;39197;53.200;5.792;2023-11-21T17:37:39;7.80;99.90
53310;DHT22;39197;53.200;5.792;2023-11-21T17:40:05;7.90;99.90
53310;DHT22;39197;53.200;5.792;2023-11-21T17:42:33;7.90;99.90
53310;DHT22;39197;53.200;5.792;2023-11-21T17:44:59;7.90;99.90
53310;DHT22;39197;53.200;5.792;2023-11-21T17:47:25;8.00;99.90
53310;DHT22;39197;53.200;5.792;2023-11-21T17:49:51;7.90;99.90
53310;DHT22;39197;53.200;5.792;2023-11-21T17:52:17;7.90;99.90
53310;DHT22;39197;53.200;5.792;2023-11-21T17:54:48;7.80;99.90
53310;DHT22;39197;53.200;5.792;2023-11-21T17:57:14;7.90;99.90
53310;DHT22;39197;53.200;5.792;2023-11-21T17:59:40;7.80;99.90
53310;DHT22;39197;53.200;5.792;2023-11-21T18:02:07;7.90;99.90
53310;DHT22;39197;53.200;5.792;2023-11-21T18:04:33;8.00;99.90
53310;DHT22;39197;53.200;5.792;2023-11-21T18:07:01;7.90;99.90
53310;DHT22;39197;53.200;5.792;2023-11-21T18:09:27;7.90;99.90
53310;DHT22;39197;53.200;5.792;2023-11-21T18:11:52;7.90;99.90
53310;DHT22;39197;53.200;5.792;2023-11-21T18:14:18;7.90;99.90
53310;DHT22;39197;53.200;5.792;2023-11-21T18:16:43;7.90;99.90
53310;DHT22;39197;53.200;5.792;2023-11-21T18:19:09;7.80;99.90
53310;DHT22;39197;53.200;5.792;2023-11-21T18:21:41;7.80;99.90
53310;DHT22;39197;53.200;5.792;2023-11-21T18:24:07;7.80;99.90
53310;DHT22;39197;53.200;5.792;2023-11-21T18:26:33;7.80;99.90
53310;DHT22;39197;53.200;5.792;2023-11-21T18:28:59;7.70;99.90
53310;DHT22;39197;53.200;5.792;2023-11-21T18:31:25;7.60;99.90
53310;DHT22;39197;53.200;5.792;2023-11-21T18:33:51;7.60;99.90